ダルエスサラーム の空港の天気 - METARとTAF

ジュリウス・ニエレレ国際空港(ダルエスサラーム) ( HTDA / DAR ) - タンザニア ダルエスサラーム
飛行場実況気象(Metar)
観測時間04/21 17:00 EAT (04/21 14:00 UTC)
風向・風速南東 5m/s
視程6000m
天気現象弱い雨
少しの雲 雲底高度 300m
全天の4割程度の雲 雲底高度 370m
少しの雲 雲底高度 430m
全天の8割程度の雲 雲底高度 2440m
気温27℃
湿度89%
気圧1009hPa
METARHTDA 211400Z 13009KT 6000 -RA FEW010 SCT012 FEW014CB BKN080 27/25 Q1009 NOSIG
過去の天気等 Google飛行場航空写真 Wunderground天気予報

過去48時間のMETAR

飛行場予報(TAF)
データがありません